createdAt,value
2022-09-06T04:01:48.341Z,101550.00
2022-09-06T04:04:16.360Z,101559.00
2022-09-06T04:06:44.371Z,101551.00
2022-09-06T04:09:13.440Z,101555.00
2022-09-06T04:11:43.877Z,101554.00
2022-09-06T04:14:25.083Z,101550.00
2022-09-06T04:16:54.439Z,101545.00
2022-09-06T04:19:23.883Z,101538.00
2022-09-06T04:21:51.919Z,101536.00
2022-09-06T04:24:19.918Z,101536.00
2022-09-06T04:26:48.126Z,101534.00
2022-09-06T04:29:16.108Z,101529.00
2022-09-06T04:31:44.199Z,101539.00
2022-09-06T04:34:13.608Z,101543.00
2022-09-06T04:36:43.647Z,101540.00
2022-09-06T04:39:15.820Z,101541.00
2022-09-06T04:41:44.044Z,101537.00
2022-09-06T04:44:12.076Z,101533.00
2022-09-06T04:46:43.456Z,101538.00
2022-09-06T04:49:13.113Z,101536.00
2022-09-06T04:51:41.249Z,101533.00
2022-09-06T04:54:09.207Z,101530.00
2022-09-06T04:56:37.281Z,101535.00
2022-09-06T04:59:05.235Z,101529.00
2022-09-06T05:01:33.526Z,101533.00
2022-09-06T05:04:01.549Z,101525.00
2022-09-06T05:06:30.880Z,101529.00
2022-09-06T05:08:58.924Z,101528.00
2022-09-06T05:11:27.317Z,101524.00
2022-09-06T05:13:55.325Z,101511.00
2022-09-06T05:16:23.338Z,101510.00
2022-09-06T05:18:51.397Z,101512.00
2022-09-06T05:21:20.202Z,101512.00
2022-09-06T05:23:49.575Z,101515.00
2022-09-06T05:26:17.541Z,101510.00
2022-09-06T05:28:45.557Z,101511.00
2022-09-06T05:31:26.472Z,101515.00
2022-09-06T05:33:56.000Z,101514.00
2022-09-06T05:36:24.259Z,101525.00
2022-09-06T05:38:55.572Z,101525.00
2022-09-06T05:41:25.096Z,101521.00
2022-09-06T05:43:53.093Z,101521.00
2022-09-06T05:46:21.231Z,101521.00
2022-09-06T05:48:54.366Z,101517.00
2022-09-06T05:51:22.429Z,101519.00
2022-09-06T05:53:50.528Z,101517.00
2022-09-06T05:56:19.935Z,101526.00
2022-09-06T05:58:47.939Z,101519.00
2022-09-06T06:01:19.755Z,101525.00
2022-09-06T06:03:54.041Z,101527.00
2022-09-06T06:06:23.491Z,101512.00
2022-09-06T06:08:52.039Z,101513.00
2022-09-06T06:11:21.771Z,101507.00
2022-09-06T06:13:50.663Z,101509.00
2022-09-06T06:16:22.047Z,101505.00
2022-09-06T06:18:52.468Z,101500.00
2022-09-06T06:21:23.026Z,101494.00
2022-09-06T06:23:54.288Z,101500.00
2022-09-06T06:26:24.730Z,101501.00
2022-09-06T06:28:53.329Z,101502.00
2022-09-06T06:31:22.894Z,101503.00
2022-09-06T06:33:51.463Z,101501.00
2022-09-06T06:36:25.285Z,101505.00
2022-09-06T06:38:56.453Z,101502.00
2022-09-06T06:41:28.747Z,101507.00
2022-09-06T06:43:59.489Z,101513.00
2022-09-06T06:46:30.294Z,101505.00
2022-09-06T06:48:59.203Z,101505.00
2022-09-06T06:51:29.912Z,101498.00
2022-09-06T06:53:58.613Z,101500.00
2022-09-06T06:56:30.544Z,101489.00
2022-09-06T06:59:01.520Z,101494.00
2022-09-06T07:01:32.590Z,101487.00
2022-09-06T07:04:01.035Z,101501.00
2022-09-06T07:09:19.244Z,101488.00
2022-09-06T07:11:49.813Z,101485.00
2022-09-06T07:14:18.358Z,101495.00
2022-09-06T07:16:46.914Z,101499.00
2022-09-06T07:22:05.332Z,101501.00
2022-09-06T07:24:33.998Z,101500.00
2022-09-06T07:29:51.253Z,101501.00
2022-09-06T07:32:19.317Z,101506.00
2022-09-06T07:34:47.304Z,101509.00
2022-09-06T07:37:15.385Z,101509.00
2022-09-06T07:39:43.459Z,101509.00
2022-09-06T07:42:12.802Z,101513.00
2022-09-06T07:44:40.865Z,101510.00
2022-09-06T07:55:34.145Z,101510.00
2022-09-06T07:58:03.526Z,101501.00
2022-09-06T08:00:31.652Z,101510.00
2022-09-06T08:03:00.331Z,101499.00
2022-09-06T08:11:06.403Z,101494.00
2022-09-06T08:13:36.090Z,101491.00
2022-09-06T08:16:07.059Z,101492.00
2022-09-06T08:18:35.961Z,101492.00
2022-09-06T08:21:12.415Z,101502.00
2022-09-06T08:23:45.451Z,101506.00
2022-09-06T08:26:13.525Z,101499.00
2022-09-06T08:28:43.101Z,101515.00
2022-09-06T08:31:13.722Z,101519.00
2022-09-06T08:33:43.433Z,101518.00
2022-09-06T08:36:12.690Z,101513.00
2022-09-06T08:38:40.763Z,101510.00
2022-09-06T08:41:18.532Z,101510.00
2022-09-06T08:46:56.330Z,101498.00
2022-09-06T08:49:27.975Z,101498.00
2022-09-06T08:52:26.595Z,101498.00
2022-09-06T08:55:03.805Z,101489.00
2022-09-06T08:57:55.291Z,101484.00
2022-09-06T09:00:25.024Z,101484.00
2022-09-06T09:03:05.658Z,101492.00
2022-09-06T09:05:37.412Z,101487.00
2022-09-06T09:08:17.148Z,101474.00
2022-09-06T09:10:50.164Z,101477.00
2022-09-06T09:13:27.141Z,101471.00
2022-09-06T09:15:56.526Z,101473.00
2022-09-06T09:18:29.984Z,101472.00
2022-09-06T09:20:59.787Z,101469.00
2022-09-06T09:23:30.873Z,101466.00
2022-09-06T09:26:07.382Z,101462.00
2022-09-06T09:28:36.123Z,101462.00
2022-09-06T09:31:07.320Z,101462.00
2022-09-06T09:33:38.830Z,101456.00
2022-09-06T09:36:12.025Z,101467.00
2022-09-06T09:38:45.109Z,101447.00
2022-09-06T09:41:30.327Z,101460.00
2022-09-06T09:44:04.884Z,101458.00
2022-09-06T09:46:36.292Z,101456.00
2022-09-06T09:49:10.145Z,101443.00
2022-09-06T09:51:40.646Z,101429.00
2022-09-06T09:54:12.623Z,101430.00
2022-09-06T09:56:51.586Z,101431.00
2022-09-06T09:59:24.997Z,101430.00
2022-09-06T10:01:59.939Z,101428.00
2022-09-06T10:04:49.257Z,101428.00
2022-09-06T10:07:21.279Z,101425.00
2022-09-06T10:09:51.400Z,101423.00
2022-09-06T10:12:30.060Z,101403.00
2022-09-06T10:15:01.022Z,101424.00
2022-09-06T10:17:37.068Z,101422.00
2022-09-06T10:20:09.178Z,101424.00
2022-09-06T10:22:51.681Z,101420.00
2022-09-06T10:25:42.108Z,101424.00
2022-09-06T10:28:34.489Z,101422.00
2022-09-06T10:31:53.148Z,101413.00
2022-09-06T10:35:04.748Z,101412.00
2022-09-06T10:37:50.742Z,101404.00
2022-09-06T10:40:33.134Z,101406.00
2022-09-06T10:43:04.199Z,101404.00
2022-09-06T10:45:47.645Z,101398.00
2022-09-06T10:48:25.359Z,101403.00
2022-09-06T10:50:59.721Z,101394.00
2022-09-06T10:53:44.488Z,101386.00
2022-09-06T10:56:18.894Z,101385.00
2022-09-06T11:01:58.888Z,101391.00
2022-09-06T11:07:31.187Z,101395.00
2022-09-06T11:10:05.972Z,101387.00
2022-09-06T11:12:42.888Z,101396.00
2022-09-06T11:15:16.061Z,101396.00
2022-09-06T11:17:53.352Z,101388.00
2022-09-06T11:20:32.273Z,101388.00
2022-09-06T11:23:39.649Z,101380.00
2022-09-06T11:26:32.471Z,101385.00
2022-09-06T11:29:04.163Z,101376.00
2022-09-06T11:34:27.586Z,101374.00
2022-09-06T11:36:58.814Z,101378.00
2022-09-06T11:42:43.065Z,101364.00
2022-09-06T11:45:21.618Z,101365.00
2022-09-06T11:47:52.388Z,101373.00
2022-09-06T11:51:01.040Z,101358.00
2022-09-06T11:53:32.248Z,101365.00
2022-09-06T11:56:30.467Z,101362.00
2022-09-06T11:59:05.259Z,101364.00
2022-09-06T12:01:40.939Z,101366.00
2022-09-06T12:04:11.102Z,101371.00
2022-09-06T12:06:43.998Z,101359.00
2022-09-06T12:09:31.061Z,101356.00
2022-09-06T12:12:02.343Z,101356.00
2022-09-06T12:14:35.816Z,101345.00
2022-09-06T12:17:28.453Z,101356.00
2022-09-06T12:20:06.331Z,101356.00
2022-09-06T12:22:55.661Z,101346.00
2022-09-06T12:25:59.203Z,101350.00
2022-09-06T12:28:38.818Z,101352.00
2022-09-06T12:31:37.965Z,101338.00
2022-09-06T12:34:15.895Z,101343.00
2022-09-06T12:37:16.743Z,101345.00
2022-09-06T12:39:59.104Z,101331.00
2022-09-06T12:42:27.997Z,101311.00
2022-09-06T12:44:57.874Z,101326.00
2022-09-06T12:47:31.922Z,101309.00
2022-09-06T12:50:14.837Z,101328.00
2022-09-06T12:52:52.505Z,101321.00
2022-09-06T12:55:26.217Z,101329.00
2022-09-06T12:57:58.044Z,101316.00
2022-09-06T13:00:35.363Z,101316.00
2022-09-06T13:03:21.084Z,101314.00
2022-09-06T13:05:49.622Z,101305.00
2022-09-06T13:08:25.187Z,101312.00
2022-09-06T13:10:54.169Z,101305.00
2022-09-06T13:13:27.143Z,101304.00
2022-09-06T13:15:57.609Z,101302.00
2022-09-06T13:18:35.436Z,101297.00
2022-09-06T13:21:07.361Z,101302.00
2022-09-06T13:23:44.026Z,101297.00
2022-09-06T13:26:12.663Z,101288.00
2022-09-06T13:28:41.619Z,101291.00
2022-09-06T13:31:20.024Z,101299.00
2022-09-06T14:13:49.578Z,101288.00
2022-09-06T14:16:18.771Z,101294.00
2022-09-06T14:18:48.048Z,101287.00
2022-09-06T14:21:18.595Z,101290.00
2022-09-06T14:23:52.866Z,101292.00
2022-09-06T14:26:25.100Z,101291.00
2022-09-06T14:28:53.268Z,101285.00
2022-09-06T14:31:25.844Z,101284.00
2022-09-06T14:33:54.820Z,101285.00
2022-09-06T14:36:29.297Z,101283.00
2022-09-06T14:38:59.168Z,101273.00
2022-09-06T14:41:28.197Z,101261.00
2022-09-06T14:43:58.692Z,101273.00
2022-09-06T14:46:29.771Z,101268.00
2022-09-06T14:49:00.086Z,101265.00
2022-09-06T14:51:31.581Z,101268.00
2022-09-06T14:54:03.324Z,101273.00
2022-09-06T14:56:31.513Z,101271.00
2022-09-06T14:59:00.396Z,101272.00
2022-09-06T15:01:35.712Z,101269.00
2022-09-06T15:04:09.522Z,101265.00
2022-09-06T15:06:44.143Z,101266.00
2022-09-06T15:09:12.399Z,101263.00
2022-09-06T15:11:43.696Z,101258.00
2022-09-06T15:14:17.071Z,101261.00
2022-09-06T15:16:45.708Z,101263.00
2022-09-06T15:19:14.530Z,101258.00
2022-09-06T15:21:44.130Z,101264.00
2022-09-06T15:24:12.527Z,101254.00
2022-09-06T15:26:42.117Z,101243.00
2022-09-06T15:29:11.631Z,101236.00
2022-09-06T15:31:40.814Z,101240.00
2022-09-06T15:34:09.865Z,101236.00
2022-09-06T15:36:38.635Z,101235.00
2022-09-06T15:39:08.263Z,101237.00
2022-09-06T15:41:40.375Z,101228.00
2022-09-06T15:44:12.155Z,101230.00
2022-09-06T15:46:47.983Z,101233.00
2022-09-06T15:49:19.040Z,101234.00
2022-09-06T15:51:47.602Z,101225.00
2022-09-06T15:54:40.181Z,101226.00
2022-09-06T15:57:08.352Z,101222.00
2022-09-06T15:59:36.536Z,101214.00
2022-09-06T16:02:04.911Z,101214.00
2022-09-06T16:04:33.205Z,101220.00
2022-09-06T16:07:01.253Z,101212.00
2022-09-06T16:09:31.762Z,101207.00
2022-09-06T16:12:00.192Z,101210.00
2022-09-06T16:14:28.983Z,101209.00
2022-09-06T16:16:57.411Z,101208.00
2022-09-06T16:19:27.409Z,101206.00
2022-09-06T16:21:55.510Z,101209.00
2022-09-06T16:24:23.780Z,101208.00
2022-09-06T16:26:53.195Z,101205.00
2022-09-06T16:29:21.315Z,101212.00
2022-09-06T16:31:49.804Z,101210.00
2022-09-06T16:34:18.180Z,101206.00
2022-09-06T16:36:46.275Z,101206.00
2022-09-06T16:39:14.466Z,101204.00
2022-09-06T16:41:46.565Z,101200.00
2022-09-06T16:44:19.100Z,101198.00
2022-09-06T16:46:50.257Z,101204.00
2022-09-06T16:49:20.061Z,101182.00
2022-09-06T16:51:50.405Z,101217.00
2022-09-06T16:54:20.095Z,101195.00
2022-09-06T16:56:48.828Z,101203.00
2022-09-06T16:59:21.619Z,101204.00
2022-09-06T17:01:51.352Z,101198.00
2022-09-06T17:04:19.717Z,101190.00
2022-09-06T17:06:47.836Z,101184.00
2022-09-06T17:09:19.619Z,101190.00
2022-09-06T17:11:49.763Z,101180.00
2022-09-06T17:14:20.088Z,101188.00
2022-09-06T17:17:05.864Z,101187.00
2022-09-06T17:19:37.527Z,101188.00
2022-09-06T17:22:06.145Z,101184.00
2022-09-06T17:24:34.270Z,101187.00
2022-09-06T17:27:02.346Z,101188.00
2022-09-06T17:29:33.023Z,101193.00
2022-09-06T17:32:03.832Z,101185.00
2022-09-06T17:34:31.856Z,101193.00
2022-09-06T17:36:59.909Z,101191.00
2022-09-06T17:39:28.016Z,101182.00
2022-09-06T17:41:56.138Z,101186.00
2022-09-06T17:44:26.621Z,101184.00
2022-09-06T17:47:12.029Z,101188.00
2022-09-06T17:49:41.372Z,101182.00
2022-09-06T17:52:09.713Z,101181.00
2022-09-06T17:54:37.976Z,101177.00
2022-09-06T17:57:06.018Z,101180.00
2022-09-06T17:59:35.730Z,101178.00
2022-09-06T18:02:06.450Z,101183.00
2022-09-06T18:04:35.165Z,101198.00
2022-09-06T18:07:03.531Z,101196.00
2022-09-06T18:09:31.702Z,101196.00
2022-09-06T18:12:00.019Z,101183.00
2022-09-06T18:14:29.014Z,101197.00
2022-09-06T18:16:57.408Z,101197.00
2022-09-06T18:19:27.526Z,101202.00
2022-09-06T18:21:57.068Z,101205.00
2022-09-06T18:24:25.257Z,101199.00
2022-09-06T18:26:53.315Z,101199.00
2022-09-06T18:29:21.644Z,101203.00
2022-09-06T18:31:53.398Z,101206.00
2022-09-06T18:34:21.886Z,101200.00
2022-09-06T18:36:51.333Z,101205.00
2022-09-06T18:39:20.492Z,101202.00
2022-09-06T18:42:00.772Z,101199.00
2022-09-06T18:44:32.354Z,101191.00
2022-09-06T18:47:02.186Z,101193.00
2022-09-06T18:49:31.073Z,101201.00
2022-09-06T18:52:01.235Z,101203.00
2022-09-06T18:54:29.847Z,101202.00
2022-09-06T18:56:58.654Z,101197.00
2022-09-06T18:59:26.882Z,101186.00
2022-09-06T19:01:55.326Z,101192.00
2022-09-06T19:04:23.656Z,101195.00
2022-09-06T19:06:51.722Z,101191.00
2022-09-06T19:09:21.267Z,101191.00
2022-09-06T19:11:51.619Z,101200.00
2022-09-06T19:14:20.273Z,101188.00
2022-09-06T19:16:50.065Z,101187.00
2022-09-06T19:19:18.357Z,101191.00
2022-09-06T19:21:46.483Z,101192.00
2022-09-06T19:24:15.922Z,101193.00
2022-09-06T19:26:46.902Z,101190.00
2022-09-06T19:29:17.545Z,101190.00
2022-09-06T19:31:47.514Z,101198.00
2022-09-06T19:34:16.134Z,101198.00
2022-09-06T19:36:45.535Z,101199.00
2022-09-06T19:39:16.976Z,101204.00
2022-09-06T19:41:47.534Z,101203.00
2022-09-06T19:44:16.932Z,101194.00
2022-09-06T19:46:47.673Z,101185.00
2022-09-06T19:49:19.128Z,101185.00
2022-09-06T19:51:51.226Z,101168.00
2022-09-06T19:54:20.298Z,101184.00
2022-09-06T19:56:49.689Z,101181.00
2022-09-06T19:59:18.536Z,101165.00
2022-09-06T20:01:47.704Z,101181.00
2022-09-06T20:04:16.983Z,101175.00
2022-09-06T20:06:45.256Z,101176.00
2022-09-06T20:09:15.871Z,101174.00
2022-09-06T20:11:44.791Z,101185.00
2022-09-06T20:14:14.428Z,101183.00
2022-09-06T20:16:43.304Z,101178.00
2022-09-06T20:19:14.843Z,101173.00
2022-09-06T20:21:43.236Z,101185.00
2022-09-06T20:24:11.511Z,101177.00
2022-09-06T20:26:40.324Z,101175.00
2022-09-06T20:29:09.043Z,101176.00
2022-09-06T20:31:39.021Z,101172.00
2022-09-06T20:34:08.157Z,101173.00
2022-09-06T20:36:36.752Z,101173.00
2022-09-06T20:39:05.333Z,101177.00
2022-09-06T20:41:34.476Z,101173.00
2022-09-06T20:44:02.890Z,101172.00
2022-09-06T20:46:33.798Z,101168.00
2022-09-06T20:49:05.362Z,101164.00
2022-09-06T20:51:36.019Z,101163.00
2022-09-06T20:54:06.475Z,101154.00
2022-09-06T20:56:38.318Z,101154.00
2022-09-06T20:59:09.506Z,101152.00
